sensor_id;sensor_type;location;lat;lon;timestamp;P1;durP1;ratioP1;P2;durP2;ratioP2
40170;SDS011;37650;52.790;18.268;2022-10-30T00:00:14;13.90;;;10.40;;
40170;SDS011;37650;52.790;18.268;2022-10-30T00:09:12;14.90;;;9.50;;
40170;SDS011;37650;52.790;18.268;2022-10-30T00:23:16;17.60;;;10.80;;
40170;SDS011;37650;52.790;18.268;2022-10-30T01:04:41;13.20;;;11.40;;
40170;SDS011;37650;52.790;18.268;2022-10-30T02:41:26;19.60;;;14.40;;
40170;SDS011;37650;52.790;18.268;2022-10-30T02:54:10;23.00;;;13.30;;
40170;SDS011;37650;52.790;18.268;2022-10-30T04:54:35;25.00;;;16.30;;
40170;SDS011;37650;52.790;18.268;2022-10-30T05:12:08;19.20;;;13.60;;
40170;SDS011;37650;52.790;18.268;2022-10-30T05:16:59;18.20;;;15.10;;
40170;SDS011;37650;52.790;18.268;2022-10-30T06:49:40;17.70;;;15.20;;
40170;SDS011;37650;52.790;18.268;2022-10-30T06:54:27;26.40;;;18.40;;
40170;SDS011;37650;52.790;18.268;2022-10-30T06:58:43;22.00;;;17.60;;
40170;SDS011;37650;52.790;18.268;2022-10-30T07:06:01;26.10;;;21.20;;
40170;SDS011;37650;52.790;18.268;2022-10-30T07:15:01;29.80;;;25.30;;
40170;SDS011;37650;52.790;18.268;2022-10-30T07:18:48;25.80;;;20.70;;
40170;SDS011;37650;52.790;18.268;2022-10-30T07:22:19;26.10;;;20.30;;
40170;SDS011;37650;52.790;18.268;2022-10-30T08:31:40;13.80;;;12.10;;
40170;SDS011;37650;52.790;18.268;2022-10-30T08:35:18;17.20;;;13.10;;
40170;SDS011;37650;52.790;18.268;2022-10-30T08:38:40;18.10;;;14.90;;
40170;SDS011;37650;52.790;18.268;2022-10-30T08:42:27;15.40;;;13.80;;
40170;SDS011;37650;52.790;18.268;2022-10-30T08:45:50;16.50;;;14.00;;
40170;SDS011;37650;52.790;18.268;2022-10-30T08:49:14;24.40;;;19.20;;
40170;SDS011;37650;52.790;18.268;2022-10-30T08:52:39;21.10;;;17.80;;
40170;SDS011;37650;52.790;18.268;2022-10-30T08:56:00;18.70;;;16.20;;
40170;SDS011;37650;52.790;18.268;2022-10-30T08:59:45;22.60;;;18.80;;
40170;SDS011;37650;52.790;18.268;2022-10-30T09:03:20;23.30;;;19.00;;
40170;SDS011;37650;52.790;18.268;2022-10-30T09:07:05;23.60;;;19.10;;
40170;SDS011;37650;52.790;18.268;2022-10-30T09:10:45;23.90;;;16.30;;
40170;SDS011;37650;52.790;18.268;2022-10-30T09:14:09;19.00;;;15.40;;
40170;SDS011;37650;52.790;18.268;2022-10-30T09:17:34;18.60;;;15.90;;
40170;SDS011;37650;52.790;18.268;2022-10-30T09:20:56;18.90;;;15.70;;
40170;SDS011;37650;52.790;18.268;2022-10-30T09:24:17;20.60;;;15.70;;
40170;SDS011;37650;52.790;18.268;2022-10-30T09:27:42;19.40;;;15.10;;
40170;SDS011;37650;52.790;18.268;2022-10-30T09:31:05;18.60;;;15.60;;
40170;SDS011;37650;52.790;18.268;2022-10-30T09:34:28;22.70;;;16.50;;
40170;SDS011;37650;52.790;18.268;2022-10-30T09:38:15;19.20;;;17.10;;
40170;SDS011;37650;52.790;18.268;2022-10-30T09:41:53;21.00;;;16.90;;
40170;SDS011;37650;52.790;18.268;2022-10-30T09:45:19;21.40;;;19.00;;
40170;SDS011;37650;52.790;18.268;2022-10-30T09:52:29;19.70;;;15.90;;
40170;SDS011;37650;52.790;18.268;2022-10-30T09:56:11;21.30;;;17.10;;
40170;SDS011;37650;52.790;18.268;2022-10-30T10:07:50;25.10;;;16.10;;
40170;SDS011;37650;52.790;18.268;2022-10-30T10:11:55;26.70;;;17.20;;
40170;SDS011;37650;52.790;18.268;2022-10-30T10:22:51;27.00;;;22.30;;
40170;SDS011;37650;52.790;18.268;2022-10-30T10:45:24;24.40;;;21.00;;
40170;SDS011;37650;52.790;18.268;2022-10-30T10:52:37;23.90;;;16.60;;
40170;SDS011;37650;52.790;18.268;2022-10-30T10:56:04;23.70;;;19.40;;
40170;SDS011;37650;52.790;18.268;2022-10-30T10:59:28;27.20;;;21.70;;
40170;SDS011;37650;52.790;18.268;2022-10-30T11:09:50;25.50;;;19.30;;
40170;SDS011;37650;52.790;18.268;2022-10-30T11:13:13;26.40;;;20.40;;
40170;SDS011;37650;52.790;18.268;2022-10-30T11:16:40;25.00;;;20.00;;
40170;SDS011;37650;52.790;18.268;2022-10-30T11:20:32;29.10;;;22.20;;
40170;SDS011;37650;52.790;18.268;2022-10-30T11:24:24;26.70;;;21.80;;
40170;SDS011;37650;52.790;18.268;2022-10-30T11:27:56;28.30;;;23.00;;
40170;SDS011;37650;52.790;18.268;2022-10-30T11:31:38;26.90;;;22.80;;
40170;SDS011;37650;52.790;18.268;2022-10-30T11:35:19;27.90;;;22.30;;
40170;SDS011;37650;52.790;18.268;2022-10-30T11:38:41;28.90;;;22.50;;
40170;SDS011;37650;52.790;18.268;2022-10-30T11:42:11;29.30;;;24.50;;
40170;SDS011;37650;52.790;18.268;2022-10-30T11:45:39;41.80;;;38.00;;
40170;SDS011;37650;52.790;18.268;2022-10-30T11:49:01;38.40;;;34.30;;
40170;SDS011;37650;52.790;18.268;2022-10-30T11:52:22;122.40;;;113.40;;
40170;SDS011;37650;52.790;18.268;2022-10-30T11:55:46;67.80;;;62.30;;
40170;SDS011;37650;52.790;18.268;2022-10-30T11:59:13;46.50;;;42.20;;
40170;SDS011;37650;52.790;18.268;2022-10-30T12:02:41;114.30;;;93.20;;
40170;SDS011;37650;52.790;18.268;2022-10-30T12:09:43;43.60;;;38.90;;
40170;SDS011;37650;52.790;18.268;2022-10-30T12:13:11;49.50;;;44.70;;
40170;SDS011;37650;52.790;18.268;2022-10-30T12:16:34;43.20;;;38.90;;
40170;SDS011;37650;52.790;18.268;2022-10-30T12:19:55;41.40;;;35.10;;
40170;SDS011;37650;52.790;18.268;2022-10-30T12:26:44;30.20;;;26.30;;
40170;SDS011;37650;52.790;18.268;2022-10-30T12:30:18;28.60;;;23.20;;
40170;SDS011;37650;52.790;18.268;2022-10-30T12:37:21;23.30;;;20.00;;
40170;SDS011;37650;52.790;18.268;2022-10-30T12:52:06;23.00;;;20.60;;
40170;SDS011;37650;52.790;18.268;2022-10-30T12:55:46;23.90;;;20.60;;
40170;SDS011;37650;52.790;18.268;2022-10-30T12:59:28;26.80;;;18.60;;
40170;SDS011;37650;52.790;18.268;2022-10-30T13:03:02;23.40;;;18.10;;
40170;SDS011;37650;52.790;18.268;2022-10-30T13:10:50;25.00;;;19.20;;
40170;SDS011;37650;52.790;18.268;2022-10-30T13:14:16;23.80;;;19.00;;
40170;SDS011;37650;52.790;18.268;2022-10-30T13:18:27;21.90;;;18.10;;
40170;SDS011;37650;52.790;18.268;2022-10-30T13:36:52;24.50;;;21.10;;
40170;SDS011;37650;52.790;18.268;2022-10-30T13:47:40;22.30;;;20.10;;
40170;SDS011;37650;52.790;18.268;2022-10-30T13:51:11;26.80;;;24.00;;
40170;SDS011;37650;52.790;18.268;2022-10-30T13:54:59;29.10;;;26.20;;
40170;SDS011;37650;52.790;18.268;2022-10-30T14:17:18;44.60;;;38.10;;
40170;SDS011;37650;52.790;18.268;2022-10-30T14:24:50;30.10;;;27.30;;
40170;SDS011;37650;52.790;18.268;2022-10-30T14:31:54;45.90;;;40.30;;
40170;SDS011;37650;52.790;18.268;2022-10-30T14:39:30;30.70;;;24.90;;
40170;SDS011;37650;52.790;18.268;2022-10-30T14:43:19;37.10;;;30.00;;
40170;SDS011;37650;52.790;18.268;2022-10-30T14:57:46;28.70;;;25.30;;
40170;SDS011;37650;52.790;18.268;2022-10-30T15:01:30;31.60;;;26.70;;
40170;SDS011;37650;52.790;18.268;2022-10-30T15:16:02;35.20;;;31.30;;
40170;SDS011;37650;52.790;18.268;2022-10-30T15:19:27;38.70;;;31.30;;
40170;SDS011;37650;52.790;18.268;2022-10-30T15:22:56;37.90;;;33.60;;
40170;SDS011;37650;52.790;18.268;2022-10-30T15:26:21;43.10;;;38.40;;
40170;SDS011;37650;52.790;18.268;2022-10-30T15:29:48;43.50;;;39.00;;
40170;SDS011;37650;52.790;18.268;2022-10-30T15:33:19;42.80;;;36.00;;
40170;SDS011;37650;52.790;18.268;2022-10-30T15:36:41;69.50;;;54.00;;
40170;SDS011;37650;52.790;18.268;2022-10-30T15:43:32;112.50;;;80.40;;
40170;SDS011;37650;52.790;18.268;2022-10-30T15:46:58;107.70;;;79.90;;
40170;SDS011;37650;52.790;18.268;2022-10-30T15:50:22;105.10;;;80.20;;
40170;SDS011;37650;52.790;18.268;2022-10-30T15:53:48;96.90;;;72.80;;
40170;SDS011;37650;52.790;18.268;2022-10-30T15:57:16;70.40;;;51.60;;
40170;SDS011;37650;52.790;18.268;2022-10-30T16:00:53;77.40;;;59.80;;
40170;SDS011;37650;52.790;18.268;2022-10-30T16:04:19;81.00;;;67.20;;
40170;SDS011;37650;52.790;18.268;2022-10-30T16:07:45;81.90;;;65.10;;
40170;SDS011;37650;52.790;18.268;2022-10-30T16:11:07;208.30;;;137.80;;
40170;SDS011;37650;52.790;18.268;2022-10-30T16:14:28;71.40;;;59.50;;
40170;SDS011;37650;52.790;18.268;2022-10-30T16:18:29;75.60;;;55.50;;
40170;SDS011;37650;52.790;18.268;2022-10-30T16:21:45;62.50;;;48.70;;
40170;SDS011;37650;52.790;18.268;2022-10-30T16:25:08;47.70;;;37.40;;
40170;SDS011;37650;52.790;18.268;2022-10-30T16:28:34;48.80;;;40.40;;
40170;SDS011;37650;52.790;18.268;2022-10-30T16:31:58;32.90;;;28.40;;
40170;SDS011;37650;52.790;18.268;2022-10-30T16:35:21;40.40;;;36.10;;
40170;SDS011;37650;52.790;18.268;2022-10-30T16:38:45;40.30;;;36.00;;
40170;SDS011;37650;52.790;18.268;2022-10-30T16:42:18;40.80;;;34.50;;
40170;SDS011;37650;52.790;18.268;2022-10-30T16:49:09;35.00;;;31.10;;
40170;SDS011;37650;52.790;18.268;2022-10-30T16:52:35;35.40;;;29.20;;
40170;SDS011;37650;52.790;18.268;2022-10-30T16:55:57;36.10;;;27.30;;
40170;SDS011;37650;52.790;18.268;2022-10-30T16:59:23;36.00;;;30.80;;
40170;SDS011;37650;52.790;18.268;2022-10-30T17:02:48;34.70;;;31.10;;
40170;SDS011;37650;52.790;18.268;2022-10-30T17:06:27;39.90;;;33.40;;
40170;SDS011;37650;52.790;18.268;2022-10-30T17:09:59;39.80;;;35.10;;
40170;SDS011;37650;52.790;18.268;2022-10-30T17:16:58;39.30;;;33.30;;
40170;SDS011;37650;52.790;18.268;2022-10-30T17:23:45;43.70;;;37.50;;
40170;SDS011;37650;52.790;18.268;2022-10-30T17:27:21;40.60;;;36.20;;
40170;SDS011;37650;52.790;18.268;2022-10-30T17:30:46;44.10;;;37.30;;
40170;SDS011;37650;52.790;18.268;2022-10-30T17:37:39;41.70;;;35.60;;
40170;SDS011;37650;52.790;18.268;2022-10-30T17:41:01;46.60;;;40.00;;
40170;SDS011;37650;52.790;18.268;2022-10-30T17:44:23;44.70;;;39.90;;
40170;SDS011;37650;52.790;18.268;2022-10-30T17:47:46;57.30;;;49.50;;
40170;SDS011;37650;52.790;18.268;2022-10-30T17:54:32;50.30;;;42.50;;
40170;SDS011;37650;52.790;18.268;2022-10-30T17:57:55;66.10;;;53.90;;
40170;SDS011;37650;52.790;18.268;2022-10-30T18:01:18;81.50;;;59.90;;
40170;SDS011;37650;52.790;18.268;2022-10-30T18:04:42;84.00;;;63.00;;
40170;SDS011;37650;52.790;18.268;2022-10-30T18:08:05;113.80;;;74.00;;
40170;SDS011;37650;52.790;18.268;2022-10-30T18:11:28;105.60;;;71.80;;
40170;SDS011;37650;52.790;18.268;2022-10-30T18:14:50;86.10;;;62.40;;
40170;SDS011;37650;52.790;18.268;2022-10-30T18:18:11;74.20;;;54.90;;
40170;SDS011;37650;52.790;18.268;2022-10-30T18:24:55;62.70;;;48.20;;
40170;SDS011;37650;52.790;18.268;2022-10-30T18:28:17;59.60;;;48.40;;
40170;SDS011;37650;52.790;18.268;2022-10-30T18:31:38;64.50;;;52.80;;
40170;SDS011;37650;52.790;18.268;2022-10-30T18:35:04;72.90;;;57.60;;
40170;SDS011;37650;52.790;18.268;2022-10-30T18:38:50;60.90;;;51.00;;
40170;SDS011;37650;52.790;18.268;2022-10-30T18:42:16;63.20;;;51.30;;
40170;SDS011;37650;52.790;18.268;2022-10-30T18:45:39;59.10;;;48.10;;
40170;SDS011;37650;52.790;18.268;2022-10-30T18:49:02;82.20;;;48.40;;
40170;SDS011;37650;52.790;18.268;2022-10-30T18:52:23;66.70;;;50.10;;
40170;SDS011;37650;52.790;18.268;2022-10-30T18:55:45;76.00;;;52.20;;
40170;SDS011;37650;52.790;18.268;2022-10-30T18:59:07;77.00;;;57.50;;
40170;SDS011;37650;52.790;18.268;2022-10-30T19:02:32;96.50;;;70.60;;
40170;SDS011;37650;52.790;18.268;2022-10-30T19:05:58;115.90;;;92.40;;
40170;SDS011;37650;52.790;18.268;2022-10-30T19:09:21;134.00;;;74.80;;
40170;SDS011;37650;52.790;18.268;2022-10-30T19:12:43;112.10;;;69.20;;
40170;SDS011;37650;52.790;18.268;2022-10-30T19:16:11;80.30;;;65.60;;
40170;SDS011;37650;52.790;18.268;2022-10-30T19:19:37;103.70;;;67.70;;
40170;SDS011;37650;52.790;18.268;2022-10-30T19:22:59;84.90;;;61.00;;
40170;SDS011;37650;52.790;18.268;2022-10-30T19:26:23;81.40;;;64.50;;
40170;SDS011;37650;52.790;18.268;2022-10-30T19:29:44;145.70;;;73.00;;
40170;SDS011;37650;52.790;18.268;2022-10-30T19:33:06;110.90;;;70.70;;
40170;SDS011;37650;52.790;18.268;2022-10-30T19:36:33;116.60;;;63.60;;
40170;SDS011;37650;52.790;18.268;2022-10-30T19:39:58;93.50;;;61.30;;
40170;SDS011;37650;52.790;18.268;2022-10-30T19:43:33;142.70;;;60.40;;
40170;SDS011;37650;52.790;18.268;2022-10-30T19:46:58;145.50;;;64.40;;
40170;SDS011;37650;52.790;18.268;2022-10-30T19:50:25;224.10;;;68.20;;
40170;SDS011;37650;52.790;18.268;2022-10-30T19:53:54;172.60;;;64.30;;
40170;SDS011;37650;52.790;18.268;2022-10-30T19:57:20;70.00;;;55.80;;
40170;SDS011;37650;52.790;18.268;2022-10-30T20:00:44;74.90;;;50.50;;
40170;SDS011;37650;52.790;18.268;2022-10-30T20:04:06;144.70;;;46.20;;
40170;SDS011;37650;52.790;18.268;2022-10-30T20:07:28;163.70;;;58.50;;
40170;SDS011;37650;52.790;18.268;2022-10-30T20:10:51;153.70;;;43.60;;
40170;SDS011;37650;52.790;18.268;2022-10-30T20:14:13;146.40;;;45.90;;
40170;SDS011;37650;52.790;18.268;2022-10-30T20:17:34;178.60;;;31.90;;
40170;SDS011;37650;52.790;18.268;2022-10-30T20:20:58;107.40;;;33.10;;
40170;SDS011;37650;52.790;18.268;2022-10-30T20:24:21;93.20;;;29.00;;
40170;SDS011;37650;52.790;18.268;2022-10-30T20:27:43;91.70;;;30.50;;
40170;SDS011;37650;52.790;18.268;2022-10-30T20:31:06;194.10;;;37.70;;
40170;SDS011;37650;52.790;18.268;2022-10-30T20:34:30;119.40;;;32.70;;
40170;SDS011;37650;52.790;18.268;2022-10-30T20:38:00;113.10;;;32.40;;
40170;SDS011;37650;52.790;18.268;2022-10-30T20:41:24;152.30;;;36.30;;
40170;SDS011;37650;52.790;18.268;2022-10-30T20:44:48;55.10;;;31.50;;
40170;SDS011;37650;52.790;18.268;2022-10-30T20:48:09;129.80;;;38.40;;
40170;SDS011;37650;52.790;18.268;2022-10-30T20:51:30;137.70;;;42.00;;
40170;SDS011;37650;52.790;18.268;2022-10-30T20:54:51;146.10;;;38.40;;
40170;SDS011;37650;52.790;18.268;2022-10-30T20:58:12;108.80;;;29.50;;
40170;SDS011;37650;52.790;18.268;2022-10-30T21:01:34;113.20;;;29.30;;
40170;SDS011;37650;52.790;18.268;2022-10-30T21:04:56;87.80;;;29.90;;
40170;SDS011;37650;52.790;18.268;2022-10-30T21:08:18;167.40;;;54.60;;
40170;SDS011;37650;52.790;18.268;2022-10-30T21:11:39;146.20;;;33.00;;
40170;SDS011;37650;52.790;18.268;2022-10-30T21:15:00;127.80;;;34.70;;
40170;SDS011;37650;52.790;18.268;2022-10-30T21:18:22;126.60;;;24.70;;
40170;SDS011;37650;52.790;18.268;2022-10-30T21:21:44;117.30;;;25.20;;
40170;SDS011;37650;52.790;18.268;2022-10-30T21:25:06;155.00;;;35.90;;
40170;SDS011;37650;52.790;18.268;2022-10-30T21:28:27;106.50;;;33.30;;
40170;SDS011;37650;52.790;18.268;2022-10-30T21:31:49;45.60;;;34.50;;
40170;SDS011;37650;52.790;18.268;2022-10-30T21:35:10;57.80;;;35.30;;
40170;SDS011;37650;52.790;18.268;2022-10-30T21:38:31;108.20;;;25.40;;
40170;SDS011;37650;52.790;18.268;2022-10-30T21:41:52;85.20;;;26.00;;
40170;SDS011;37650;52.790;18.268;2022-10-30T21:45:13;75.80;;;24.80;;
40170;SDS011;37650;52.790;18.268;2022-10-30T21:48:34;53.20;;;23.10;;
40170;SDS011;37650;52.790;18.268;2022-10-30T21:51:55;45.00;;;22.70;;
40170;SDS011;37650;52.790;18.268;2022-10-30T21:55:16;36.70;;;23.30;;
40170;SDS011;37650;52.790;18.268;2022-10-30T21:58:37;46.00;;;24.60;;
40170;SDS011;37650;52.790;18.268;2022-10-30T22:01:59;161.40;;;27.80;;
40170;SDS011;37650;52.790;18.268;2022-10-30T22:05:20;138.10;;;29.10;;
40170;SDS011;37650;52.790;18.268;2022-10-30T22:08:44;165.20;;;31.10;;
40170;SDS011;37650;52.790;18.268;2022-10-30T22:12:10;103.90;;;27.20;;
40170;SDS011;37650;52.790;18.268;2022-10-30T22:15:31;55.30;;;22.90;;
40170;SDS011;37650;52.790;18.268;2022-10-30T22:18:52;84.50;;;24.80;;
40170;SDS011;37650;52.790;18.268;2022-10-30T22:22:14;163.60;;;27.10;;
40170;SDS011;37650;52.790;18.268;2022-10-30T22:25:35;77.70;;;24.10;;
40170;SDS011;37650;52.790;18.268;2022-10-30T22:28:57;131.30;;;23.70;;
40170;SDS011;37650;52.790;18.268;2022-10-30T22:32:19;121.10;;;27.30;;
40170;SDS011;37650;52.790;18.268;2022-10-30T22:35:42;151.30;;;24.20;;
40170;SDS011;37650;52.790;18.268;2022-10-30T22:39:05;132.00;;;25.40;;
40170;SDS011;37650;52.790;18.268;2022-10-30T22:42:29;112.20;;;25.00;;
40170;SDS011;37650;52.790;18.268;2022-10-30T22:45:53;57.80;;;20.70;;
40170;SDS011;37650;52.790;18.268;2022-10-30T22:49:15;84.70;;;25.40;;
40170;SDS011;37650;52.790;18.268;2022-10-30T22:52:38;109.60;;;25.10;;
40170;SDS011;37650;52.790;18.268;2022-10-30T22:56:20;62.30;;;22.00;;
40170;SDS011;37650;52.790;18.268;2022-10-30T22:59:46;152.70;;;28.40;;
40170;SDS011;37650;52.790;18.268;2022-10-30T23:03:07;71.20;;;23.90;;
40170;SDS011;37650;52.790;18.268;2022-10-30T23:06:29;90.70;;;22.10;;
40170;SDS011;37650;52.790;18.268;2022-10-30T23:13:11;116.90;;;24.90;;
40170;SDS011;37650;52.790;18.268;2022-10-30T23:16:33;64.70;;;23.70;;
40170;SDS011;37650;52.790;18.268;2022-10-30T23:19:54;75.60;;;24.80;;
40170;SDS011;37650;52.790;18.268;2022-10-30T23:23:14;96.50;;;25.30;;
40170;SDS011;37650;52.790;18.268;2022-10-30T23:26:36;77.20;;;23.40;;
40170;SDS011;37650;52.790;18.268;2022-10-30T23:29:57;56.60;;;23.40;;
40170;SDS011;37650;52.790;18.268;2022-10-30T23:33:18;65.80;;;21.20;;
40170;SDS011;37650;52.790;18.268;2022-10-30T23:36:39;82.30;;;22.30;;
40170;SDS011;37650;52.790;18.268;2022-10-30T23:40:02;68.70;;;23.60;;
40170;SDS011;37650;52.790;18.268;2022-10-30T23:43:23;68.80;;;26.40;;
40170;SDS011;37650;52.790;18.268;2022-10-30T23:46:44;93.80;;;26.50;;
40170;SDS011;37650;52.790;18.268;2022-10-30T23:50:05;61.60;;;21.00;;
40170;SDS011;37650;52.790;18.268;2022-10-30T23:53:26;37.70;;;22.60;;
40170;SDS011;37650;52.790;18.268;2022-10-30T23:56:47;84.50;;;25.90;;
